Aviation Digital Data Service (ADDS)

Output produced by METARs form (1212 UTC 25 June 2019)
found at http://www.aviationweather.gov/metar/data/
 
RJTT 251200Z 17009KT 9999 FEW015 22/19 Q1018 NOSIG RMK 1CU015 A3006
RJTT 251130Z 18009KT 9999 FEW015 23/20 Q1017 NOSIG RMK 1CU015 A3005
TAF RJTT 251105Z 2512/2618 16006KT 9999 FEW015 SCT025 
     BECMG 2600/2603 20018KT 
     TEMPO 2606/2612 20020G30KT
       
RJAA 251200Z 18002KT 9999 FEW030 19/18 Q1018 NOSIG RMK 1CU030 A3007
RJAA 251130Z 16002KT 9999 FEW030 19/18 Q1018 NOSIG RMK 1CU030 A3006
TAF RJAA 251105Z 2512/2618 12004KT 9999 FEW010 SCT020 
     BECMG 2514/2516 4000 BR FEW005 BKN008 
     TEMPO 2518/2521 3000 BR FEW003 BKN005 
     BECMG 2521/2523 9999 NSW FEW020 SCT040 
     BECMG 2603/2606 18010KT
       
RJGG 251200Z 12010KT 9999 FEW020 24/20 Q1017 NOSIG
RJGG 251130Z 14011KT 9999 FEW020 24/20 Q1017 NOSIG
TAF RJGG 251107Z 2512/2618 14010KT 9999 FEW020 
     TEMPO 2609/2612 3000 SHRA BR FEW005 BKN008 
     TEMPO 2612/2618 4000 -SHRA BR
       
RJBB 251200Z 22009KT CAVOK 23/19 Q1016 NOSIG
RJBB 251130Z 21011KT CAVOK 23/19 Q1016 NOSIG
TAF RJBB 251105Z 2512/2618 18007KT 9999 FEW030 
     BECMG 2515/2517 06005KT 
     BECMG 2606/2609 20006KT 
     BECMG 2615/2618 06004KT
       
TAF RJOO 251107Z 2512/2618 32004KT 9999 FEW030 
     BECMG 2600/2603 22006KT 
     BECMG 2612/2615 32004KT
       
RJFF 251200Z 30004KT 250V350 CAVOK 26/19 Q1013 NOSIG RMK A2992
RJFF 251130Z 29005KT 230V320 CAVOK 26/19 Q1013 BECMG 16005KT
TAF RJFF 251105Z 2512/2618 30005KT 9999 FEW040 
     BECMG 2512/2514 16004KT 
     BECMG 2600/2603 16016KT
       
ROAH 251200Z 14010KT 110V170 9999 FEW013 SCT020 BKN200 27/25 Q1009 RMK 2CU013 3CU020 7AC200 A2980
ROAH 251130Z 14010KT 9999 FEW010 SCT013 BKN180 27/25 Q1009 RMK 1CU010 3CU013 7AC180 A2980
TAF ROAH 251108Z 2512/2618 15008KT 9999 FEW008 BKN015 
     TEMPO 2606/2612 3000 TSRA FEW008 BKN010 FEW020CB 
     BECMG 2612/2615 01010KT 
     TEMPO 2612/2615 4000 SHRA FEW008 BKN010 FEW020CB 
     BECMG 2615/2618 24010KT
       
RJCC 251200Z 16005KT 9999 FEW003 BKN007 15/14 Q1016 RMK 1ST003 7ST007 A3001
RJCC 251130Z 15004KT 130V190 8000 FEW003 BKN006 15/14 Q1016 RMK 1ST003 7ST006 A3002
TAF RJCC 251105Z 2512/2618 16010KT 9999 FEW005 BKN015 
     TEMPO 2512/2515 2000 BR FEW002 BKN005 
     TEMPO 2515/2521 0700 FG VV001 
     TEMPO 2521/2600 3000 BR FEW003 BKN006 
     TEMPO 2609/2612 FEW003 BKN006 
     TEMPO 2612/2618 2000 BR FEW002 BKN005
       
TAF RJEC 251107Z 2512/2618 34005KT 9999 FEW040 
     BECMG 2512/2514 17006KT 
     BECMG 2603/2606 26010KT 
     BECMG 2609/2612 17008KT
       
RJCK 251126Z 19003KT 140V250 0400 R17/0450V1900U FG VV001 09/09 Q1015 RMK A3000
RJCK 251124Z 21003KT 150V250 0400 R17/0500V1900U FG VV001 09/09 Q1015 RMK A2999
TAF RJCK 251108Z 2512/2618 16005KT 7000 FEW003 BKN015 
     TEMPO 2512/2522 0700 FG VV001 
     BECMG 2513/2515 02003KT 
     BECMG 2521/2523 20012KT 
     BECMG 2612/2615 03006KT
       
RJSA 251200Z 20002KT 9999 FEW015 14/14 Q1017
TAF RJSA 251105Z 2512/2618 21006KT 9999 FEW010 SCT020
       
RJSK 251200Z 00000KT CAVOK 19/16 Q1017
TAF RJSK 251105Z 2512/2618 14004KT 6000 FEW005 SCT015 
     TEMPO 2515/2522 1500 BR FEW001 BKN003 
     BECMG 2600/2603 26010KT 
     BECMG 2612/2615 14004KT
       
RJSN 251200Z 03003KT 9999 FEW040 SCT070 20/18 Q1017
TAF RJSN 251105Z 2512/2618 14004KT 9999 FEW030 
     BECMG 2600/2603 34008KT 
     BECMG 2606/2609 04006KT
       
TAF RJSF 251105Z 2512/2618 15004KT 9999 FEW008 SCT015 
     TEMPO 2515/2522 4000 BR FEW005 BKN008
       
RJSS 251200Z 16005KT 9999 FEW015 20/18 Q1017
TAF RJSS 251111Z 2512/2618 15005KT 9999 FEW015 
     BECMG 2512/2514 20004KT 
     BECMG 2522/2600 14010KT 
     BECMG 2612/2615 34004KT
       
TAF RJOK 251108Z 2512/2618 35005KT 9999 FEW025 SCT040 
     BECMG 2522/2600 14004KT 
     TEMPO 2600/2603 4000 SHRA BR 
     TEMPO 2603/2606 3000 TSRA BR FEW003 BKN007 BKN015 FEW020CB 
     TEMPO 2606/2612 3000 SHRA BR FEW005 BKN008 BKN015 
     TEMPO 2612/2618 4000 SHRA BR
       
RJOM 251200Z 33002KT 9999 FEW040 SCT/// 22/18 Q1015
TAF RJOM 251106Z 2512/2618 12005KT 9999 FEW030 SCT060 
     BECMG 2522/2600 35008KT 
     BECMG 2609/2612 12005KT
       
RJFO 251200Z 15013KT CAVOK 24/22 Q1015
TAF RJFO 251106Z 2512/2618 15005KT 9999 FEW015 SCT025 BKN040 
     TEMPO 2521/2603 4000 -SHRA BR FEW003 BKN008 BKN010 
     TEMPO 2603/2606 3000 -SHRA BR FEW003 BKN005 BKN008 
     BECMG 2609/2612 15015KT 
     TEMPO 2609/2618 3000 -SHRA BR FEW003 BKN005 BKN008
       
RJFU 251200Z 36003KT CAVOK 26/19 Q1013
TAF RJFU 251106Z 2512/2618 30005KT 9999 FEW015 SCT020 BKN030 
     BECMG 2513/2515 13009KT 
     BECMG 2603/2606 15020KT 
     TEMPO 2609/2615 4000 SHRA BR FEW006 BKN008 BKN015
       
RJFT 251200Z 07008KT 9999 SCT060 BKN090 25/16 Q1014
TAF RJFT 251106Z 2512/2618 09007KT 9999 FEW030 SCT050 
     BECMG 2600/2603 24003KT 
     TEMPO 2603/2606 4000 -SHRA BR 
     BECMG 2606/2609 11005KT
       
RJFK 251200Z 11007KT 6000 -SHRA FEW008 SCT025 BKN035 21/19 Q1015 RMK 1ST008 3CU025 5CU035 A3000
RJFK 251147Z 09008KT 050V120 6000 R34/2000N SHRA FEW025 BKN035 BKN060 22/19 Q1015 RMK 1CU025 5CU035 7SC060 A2999
TAF RJFK 251109Z 2512/2618 10009KT 9000 -SHRA FEW010 SCT015 BKN025 
     TEMPO 2521/2603 3000 SHRA BR FEW003 BKN008 BKN010 
     TEMPO 2603/2606 3000 TSRA BR FEW003 BKN008 BKN010 FEW020CB 
     TEMPO 2606/2612 4000 -SHRA BR 
     TEMPO 2612/2618 3000 SHRA BR FEW003 BKN008 BKN010
       
RJFM 251200Z 04007KT 010V080 9000 -SHRA FEW015 BKN030 BKN040 25/21 Q1015
TAF RJFM 251107Z 2512/2618 05008KT 8000 -SHRA FEW008 SCT010 BKN015 
     TEMPO 2512/2516 4000 -SHRA BR FEW005 BKN008 BKN010 
     TEMPO 2521/2603 3000 SHRA BR FEW005 BKN008 BKN010 
     TEMPO 2603/2609 3000 TSRA BR FEW005 BKN008 BKN010 FEW020CB 
     TEMPO 2609/2618 3000 SHRA BR FEW005 BKN008 BKN010